Adventure — SVKA — position and weather

sailwx.info

Track history (hours):
 
Tides and Currents Weather Stations Pressure Air Temp Water Temp Dewpoint Dewpoint Depression Visibility Wind Speed Wind Dir Waves Ship Positions

Adventure

Last reported at 2017-Sep-13 09:13 UTC. Time now 2017-Sep-20 23:45 UTC.
Position S 05°25' E 010°55'.

Length 333 m; draft 13.2 m.

Type: Tanker. MMSI: 240644000.

Date/timePositionNaut miles runAvg speedWind from/ knotsBaromVisibWave heightAir tempDewpointWater temp
2017-Sep-13 09:13S 05°25' E 010°55'312.2
2017-Sep-13 09:00S 05°22' E 010°56'612.4
2017-Sep-13 08:30S 05°18' E 011°00'612.5
2017-Sep-13 08:00S 05°13' E 011°04'612.3
2017-Sep-13 07:30S 05°09' E 011°09'712.6
2017-Sep-13 06:57S 05°06' E 011°15'612.6
2017-Sep-13 06:30S 05°05' E 011°21'612.5
2017-Sep-13 06:00S 05°03' E 011°27'710.4
2017-Sep-13 05:22S 04°58' E 011°31'410.5
2017-Sep-13 05:00S 04°54' E 011°33'18 4.1
2017-Sep-13 00:41S 04°53' E 011°50'  
2017-Sep-09 21:37S 04°50' E 011°42'1 3.9
2017-Sep-09 21:24S 04°50' E 011°41'2 5.6
2017-Sep-09 20:58S 04°52' E 011°39'3 6.4
2017-Sep-09 20:30S 04°53' E 011°37'3 6.3
2017-Sep-09 20:00S 04°55' E 011°34'3 6.0
2017-Sep-09 19:30S 04°57' E 011°32'3 6.4
2017-Sep-09 19:00S 05°00' E 011°31'3 5.8
2017-Sep-09 18:26S 05°03' E 011°30'3 6.7
2017-Sep-09 18:00S 05°04' E 011°27'3 6.9
2017-Sep-09 17:30S 05°05' E 011°24'3 6.9
2017-Sep-09 17:00S 05°06' E 011°20'4 6.9
2017-Sep-09 16:30S 05°07' E 011°17'3 6.8
2017-Sep-09 16:00S 05°08' E 011°14'3 6.8
2017-Sep-09 15:30S 05°10' E 011°11'3 6.6
2017-Sep-09 15:00S 05°11' E 011°08'2 3.7
2017-Sep-09 14:30S 05°12' E 011°06'1 1.6
2017-Sep-09 14:00S 05°12' E 011°05'1 1.5
2017-Sep-09 13:30S 05°12' E 011°05'1 1.7
2017-Sep-09 13:00S 05°13' E 011°04'2 3.9
2017-Sep-09 12:30S 05°13' E 011°02'4 7.1
2017-Sep-09 12:00S 05°14' E 010°59'3 6.6
2017-Sep-09 11:30S 05°16' E 010°56'3 5.8
2017-Sep-09 10:59S 05°18' E 010°54'  
Track history (hours):
 
Tides and Currents Weather Stations Pressure Air Temp Water Temp Dewpoint Dewpoint Depression Visibility Wind Speed Wind Dir Waves Ship Positions

Adventure

Last reported at 2017-Sep-13 09:13 UTC. Time now 2017-Sep-20 23:45 UTC.
Position S 05°25' E 010°55'.

Length 333 m; draft 13.2 m.

Type: Tanker. MMSI: 240644000.

Date/timePositionNaut miles runAvg speedWind from/ knotsBaromVisibWave heightAir tempDewpointWater temp
2017-Sep-13 09:13S 05°25' E 010°55'312.2
2017-Sep-13 09:00S 05°22' E 010°56'612.4
2017-Sep-13 08:30S 05°18' E 011°00'612.5
2017-Sep-13 08:00S 05°13' E 011°04'612.3
2017-Sep-13 07:30S 05°09' E 011°09'712.6
2017-Sep-13 06:57S 05°06' E 011°15'612.6
2017-Sep-13 06:30S 05°05' E 011°21'612.5
2017-Sep-13 06:00S 05°03' E 011°27'710.4
2017-Sep-13 05:22S 04°58' E 011°31'410.5
2017-Sep-13 05:00S 04°54' E 011°33'18 4.1
2017-Sep-13 00:41S 04°53' E 011°50'  
2017-Sep-09 21:37S 04°50' E 011°42'1 3.9
2017-Sep-09 21:24S 04°50' E 011°41'2 5.6
2017-Sep-09 20:58S 04°52' E 011°39'3 6.4
2017-Sep-09 20:30S 04°53' E 011°37'3 6.3
2017-Sep-09 20:00S 04°55' E 011°34'3 6.0
2017-Sep-09 19:30S 04°57' E 011°32'3 6.4
2017-Sep-09 19:00S 05°00' E 011°31'3 5.8
2017-Sep-09 18:26S 05°03' E 011°30'3 6.7
2017-Sep-09 18:00S 05°04' E 011°27'3 6.9
2017-Sep-09 17:30S 05°05' E 011°24'3 6.9
2017-Sep-09 17:00S 05°06' E 011°20'4 6.9
2017-Sep-09 16:30S 05°07' E 011°17'3 6.8
2017-Sep-09 16:00S 05°08' E 011°14'3 6.8
2017-Sep-09 15:30S 05°10' E 011°11'3 6.6
2017-Sep-09 15:00S 05°11' E 011°08'2 3.7
2017-Sep-09 14:30S 05°12' E 011°06'1 1.6
2017-Sep-09 14:00S 05°12' E 011°05'1 1.5
2017-Sep-09 13:30S 05°12' E 011°05'1 1.7
2017-Sep-09 13:00S 05°13' E 011°04'2 3.9
2017-Sep-09 12:30S 05°13' E 011°02'4 7.1
2017-Sep-09 12:00S 05°14' E 010°59'3 6.6
2017-Sep-09 11:30S 05°16' E 010°56'3 5.8
2017-Sep-09 10:59S 05°18' E 010°54'  

Dump ship's entire track history